Time;durP1;ratioP1;P1;durP2;ratioP2;P2;SDS_P1;SDS_P2;PMS_P1;PMS_P2;Temp;Humidity;BMP_temperature;BMP_pressure;BME280_temperature;BME280_humidity;BME280_pressure;Samples;Min_cycle;Max_cycle;Signal;HPM_P1;HPM_P2
2023/10/19 00:01:15;;;;;;;18.98;13.02;;;;;;;;;;5007183;28;20116;-69
2023/10/19 00:03:41;;;;;;;20.48;13.23;;;;;;;;;;5006538;28;20039;-67
2023/10/19 00:06:08;;;;;;;20.58;13.63;;;;;;;;;;5008136;28;20153;-70
2023/10/19 00:08:46;;;;;;;20.80;14.63;;;;;;;;;;5008499;28;20030;-70
2023/10/19 00:11:22;;;;;;;24.58;15.23;;;;;;;;;;5025362;28;20125;-69
2023/10/19 00:13:50;;;;;;;23.85;16.20;;;;;;;;;;5006168;28;20400;-69
2023/10/19 00:16:16;;;;;;;18.98;14.02;;;;;;;;;;5007624;28;20029;-69
2023/10/19 00:18:48;;;;;;;22.48;15.55;;;;;;;;;;5008131;28;20087;-69
2023/10/19 00:23:43;;;;;;;24.83;16.13;;;;;;;;;;5007727;28;20345;-69
2023/10/19 00:26:10;;;;;;;21.17;14.30;;;;;;;;;;5006923;28;20480;-67
2023/10/19 00:28:38;;;;;;;20.77;15.25;;;;;;;;;;5008051;28;20693;-69
2023/10/19 00:31:08;;;;;;;21.27;15.63;;;;;;;;;;5024473;28;20128;-67
2023/10/19 00:33:38;;;;;;;22.77;16.05;;;;;;;;;;5007676;28;20482;-68
2023/10/19 00:36:08;;;;;;;20.63;15.40;;;;;;;;;;5007731;28;20068;-68
2023/10/19 00:41:13;;;;;;;23.15;15.95;;;;;;;;;;5008218;28;20038;-66
2023/10/19 00:43:43;;;;;;;23.15;15.68;;;;;;;;;;5022310;28;20615;-67
2023/10/19 00:48:58;;;;;;;25.77;16.15;;;;;;;;;;5008474;28;20042;-69
2023/10/19 00:54:26;;;;;;;22.73;16.90;;;;;;;;;;5009338;28;20515;-69
2023/10/19 00:56:52;;;;;;;24.00;16.42;;;;;;;;;;5008917;28;20835;-70
2023/10/19 00:59:24;;;;;;;20.63;15.45;;;;;;;;;;5008483;28;20039;-70
2023/10/19 01:01:53;;;;;;;24.10;16.77;;;;;;;;;;5008657;28;20038;-69
2023/10/19 01:04:32;;;;;;;24.70;16.45;;;;;;;;;;5012010;28;20128;-69
2023/10/19 01:07:06;;;;;;;24.17;15.90;;;;;;;;;;5012097;28;20030;-69
2023/10/19 01:09:34;;;;;;;20.02;15.80;;;;;;;;;;5010930;28;20025;-70
2023/10/19 01:12:21;;;;;;;25.55;16.15;;;;;;;;;;5010788;28;20128;-69
2023/10/19 01:15:05;;;;;;;26.55;16.75;;;;;;;;;;5010330;28;20531;-69
2023/10/19 01:17:44;;;;;;;22.55;16.42;;;;;;;;;;5010128;28;20202;-70
2023/10/19 01:20:55;;;;;;;23.50;16.38;;;;;;;;;;5010125;28;20057;-69
2023/10/19 01:25:49;;;;;;;23.02;15.77;;;;;;;;;;5010061;28;20048;-67
2023/10/19 01:28:16;;;;;;;21.85;15.85;;;;;;;;;;5011368;28;20033;-70
2023/10/19 01:30:44;;;;;;;24.63;15.93;;;;;;;;;;5009468;28;20072;-69
2023/10/19 01:33:15;;;;;;;25.25;17.63;;;;;;;;;;5008111;28;20029;-67
2023/10/19 01:38:30;;;;;;;22.02;15.70;;;;;;;;;;5012319;28;20080;-68
2023/10/19 01:40:59;;;;;;;23.27;16.15;;;;;;;;;;5011079;28;20108;-67
2023/10/19 01:43:25;;;;;;;21.83;15.48;;;;;;;;;;5011060;28;20064;-68
2023/10/19 01:45:54;;;;;;;22.92;16.52;;;;;;;;;;5010005;28;20031;-68
2023/10/19 01:48:27;;;;;;;22.65;16.65;;;;;;;;;;5009858;28;20064;-69
2023/10/19 01:50:53;;;;;;;23.30;16.00;;;;;;;;;;5010618;28;20033;-68
2023/10/19 01:53:25;;;;;;;22.20;15.68;;;;;;;;;;5010871;28;20021;-69
2023/10/19 01:55:57;;;;;;;21.13;15.65;;;;;;;;;;5008303;28;20026;-69
2023/10/19 01:58:25;;;;;;;20.23;14.97;;;;;;;;;;5009969;28;20030;-69
2023/10/19 02:00:54;;;;;;;18.48;14.27;;;;;;;;;;5009308;28;20041;-70
2023/10/19 02:03:23;;;;;;;21.35;15.30;;;;;;;;;;5010298;28;20037;-70
2023/10/19 02:05:50;;;;;;;20.77;15.80;;;;;;;;;;5009443;28;20132;-69
2023/10/19 02:08:17;;;;;;;20.35;14.82;;;;;;;;;;5010062;28;20029;-69
2023/10/19 02:10:47;;;;;;;18.63;14.55;;;;;;;;;;5009665;28;20038;-69
2023/10/19 02:13:15;;;;;;;19.05;14.57;;;;;;;;;;5009911;28;20033;-70
2023/10/19 02:15:43;;;;;;;19.10;14.18;;;;;;;;;;5008857;28;20049;-70
2023/10/19 02:18:11;;;;;;;17.90;13.90;;;;;;;;;;5008810;28;20075;-70
2023/10/19 02:20:40;;;;;;;20.20;14.50;;;;;;;;;;5009966;28;20084;-69
2023/10/19 02:23:07;;;;;;;20.13;14.45;;;;;;;;;;5009202;28;20504;-69
2023/10/19 02:25:37;;;;;;;18.65;14.00;;;;;;;;;;5008235;28;20045;-69
2023/10/19 02:28:06;;;;;;;18.83;13.85;;;;;;;;;;5010863;28;20575;-70
2023/10/19 02:30:33;;;;;;;17.85;13.68;;;;;;;;;;5009732;28;20064;-68
2023/10/19 02:33:05;;;;;;;15.63;12.10;;;;;;;;;;5011771;28;20033;-69
2023/10/19 02:35:32;;;;;;;19.35;12.82;;;;;;;;;;5010775;28;20017;-69
2023/10/19 02:37:58;;;;;;;17.15;13.02;;;;;;;;;;5010326;28;20037;-69
2023/10/19 02:40:24;;;;;;;15.93;12.18;;;;;;;;;;5010912;28;20025;-69
2023/10/19 02:42:51;;;;;;;16.30;12.82;;;;;;;;;;5008078;28;20044;-69
2023/10/19 02:45:18;;;;;;;18.48;13.43;;;;;;;;;;5010187;28;20029;-68
2023/10/19 02:47:47;;;;;;;16.95;12.98;;;;;;;;;;5009092;28;20057;-69
2023/10/19 02:50:16;;;;;;;19.15;13.75;;;;;;;;;;5007769;28;20107;-69
2023/10/19 02:52:43;;;;;;;14.70;11.43;;;;;;;;;;5009690;28;20037;-69
2023/10/19 02:55:12;;;;;;;18.73;13.00;;;;;;;;;;5008432;28;20022;-69
2023/10/19 02:57:38;;;;;;;17.25;12.27;;;;;;;;;;5007937;28;20038;-69
2023/10/19 03:00:12;;;;;;;15.32;11.50;;;;;;;;;;5006980;28;20045;-68
2023/10/19 03:02:38;;;;;;;14.55;10.65;;;;;;;;;;5007322;28;20029;-69
2023/10/19 03:05:12;;;;;;;17.45;10.98;;;;;;;;;;5025092;28;20035;-69
2023/10/19 03:07:39;;;;;;;14.73;10.40;;;;;;;;;;5009994;28;20034;-69
2023/10/19 03:10:06;;;;;;;14.48;10.98;;;;;;;;;;5009775;28;20049;-70
2023/10/19 03:12:32;;;;;;;13.50;10.55;;;;;;;;;;5009793;28;20034;-70
2023/10/19 03:15:00;;;;;;;13.02;9.88;;;;;;;;;;5009335;28;20040;-69
2023/10/19 03:17:28;;;;;;;14.93;11.02;;;;;;;;;;5008210;28;20075;-71
2023/10/19 03:19:55;;;;;;;13.65;9.20;;;;;;;;;;5008540;28;20033;-71
2023/10/19 03:22:21;;;;;;;14.60;9.70;;;;;;;;;;5007932;28;20034;-70
2023/10/19 03:24:47;;;;;;;13.52;9.30;;;;;;;;;;5007711;28;20042;-70
2023/10/19 03:27:23;;;;;;;14.25;9.57;;;;;;;;;;5007821;28;20033;-70
2023/10/19 03:29:56;;;;;;;15.95;10.32;;;;;;;;;;5007940;28;20044;-70
2023/10/19 03:32:26;;;;;;;13.50;9.70;;;;;;;;;;5010718;28;20038;-69
2023/10/19 03:34:55;;;;;;;14.60;9.68;;;;;;;;;;5010004;28;20139;-70
2023/10/19 03:37:25;;;;;;;14.40;10.00;;;;;;;;;;5010349;28;20459;-70
2023/10/19 03:39:51;;;;;;;12.90;9.40;;;;;;;;;;5009279;28;20809;-70
2023/10/19 03:42:18;;;;;;;12.00;8.75;;;;;;;;;;5010123;28;20043;-69
2023/10/19 03:47:20;;;;;;;12.68;9.43;;;;;;;;;;5009834;28;21704;-69
2023/10/19 03:49:47;;;;;;;12.88;8.25;;;;;;;;;;5011319;28;20070;-69
2023/10/19 03:54:41;;;;;;;11.48;8.43;;;;;;;;;;5007429;28;20527;-67
2023/10/19 03:57:25;;;;;;;11.30;8.07;;;;;;;;;;5007995;28;20037;-67
2023/10/19 03:59:56;;;;;;;11.70;8.48;;;;;;;;;;5005718;28;20135;-67
2023/10/19 04:02:35;;;;;;;11.25;8.52;;;;;;;;;;5007402;28;20033;-67
2023/10/19 04:05:02;;;;;;;12.60;9.02;;;;;;;;;;5008284;28;20029;-67
2023/10/19 04:07:31;;;;;;;12.02;8.07;;;;;;;;;;5022299;28;20128;-67
2023/10/19 04:12:35;;;;;;;12.38;7.97;;;;;;;;;;5007800;28;20022;-67
2023/10/19 04:15:17;;;;;;;11.57;8.55;;;;;;;;;;5004380;28;20053;-67
2023/10/19 04:17:50;;;;;;;13.15;8.02;;;;;;;;;;5007271;28;20171;-68
2023/10/19 04:22:47;;;;;;;10.68;7.95;;;;;;;;;;5006820;28;21152;-67
2023/10/19 04:25:18;;;;;;;14.32;8.48;;;;;;;;;;5006177;28;20029;-68
2023/10/19 04:27:48;;;;;;;12.95;8.55;;;;;;;;;;5005826;28;20131;-67
2023/10/19 04:30:21;;;;;;;12.48;8.13;;;;;;;;;;5005018;28;20038;-67
2023/10/19 04:32:49;;;;;;;11.07;8.32;;;;;;;;;;5006500;28;20496;-67
2023/10/19 04:35:21;;;;;;;9.77;7.43;;;;;;;;;;5004169;28;20041;-67
2023/10/19 04:37:48;;;;;;;10.38;7.22;;;;;;;;;;5010645;28;20025;-67
2023/10/19 04:40:14;;;;;;;9.73;7.30;;;;;;;;;;5011273;28;20034;-67
2023/10/19 04:42:40;;;;;;;9.35;7.22;;;;;;;;;;5010882;28;20120;-67
2023/10/19 04:45:06;;;;;;;10.55;6.78;;;;;;;;;;5011831;28;20087;-67
2023/10/19 04:47:35;;;;;;;11.57;7.55;;;;;;;;;;5010936;28;20048;-67
2023/10/19 04:50:01;;;;;;;10.40;7.22;;;;;;;;;;5010502;28;20036;-67
2023/10/19 04:52:27;;;;;;;11.50;7.88;;;;;;;;;;5010844;28;20140;-67
2023/10/19 04:54:54;;;;;;;9.55;6.47;;;;;;;;;;5011214;28;20123;-67
2023/10/19 04:57:23;;;;;;;9.00;6.25;;;;;;;;;;5012034;28;20116;-67
2023/10/19 04:59:49;;;;;;;8.15;5.70;;;;;;;;;;5011667;28;20041;-67
2023/10/19 05:02:16;;;;;;;9.85;6.15;;;;;;;;;;5011044;28;20386;-67
2023/10/19 05:04:42;;;;;;;9.45;6.38;;;;;;;;;;5010512;28;20042;-66
2023/10/19 05:07:11;;;;;;;8.48;5.55;;;;;;;;;;5011425;28;20174;-67
2023/10/19 05:09:40;;;;;;;8.30;5.60;;;;;;;;;;5010528;28;20033;-67
2023/10/19 05:12:11;;;;;;;7.75;5.47;;;;;;;;;;5011824;28;21820;-67
2023/10/19 05:14:37;;;;;;;7.97;5.80;;;;;;;;;;5010511;28;20030;-67
2023/10/19 05:17:08;;;;;;;8.65;5.85;;;;;;;;;;5010810;28;20071;-67
2023/10/19 05:19:35;;;;;;;7.97;5.63;;;;;;;;;;5010703;28;20914;-67
2023/10/19 05:22:01;;;;;;;9.70;6.13;;;;;;;;;;5009606;28;21038;-67
2023/10/19 05:24:28;;;;;;;8.73;5.85;;;;;;;;;;5010523;28;20128;-66
2023/10/19 05:26:54;;;;;;;8.73;5.30;;;;;;;;;;5008523;28;20139;-66
2023/10/19 05:29:20;;;;;;;6.93;4.80;;;;;;;;;;5007715;28;20732;-66
2023/10/19 05:31:47;;;;;;;7.07;5.10;;;;;;;;;;5010639;28;20392;-67
2023/10/19 05:34:13;;;;;;;7.85;5.13;;;;;;;;;;5010101;28;20456;-66
2023/10/19 05:36:39;;;;;;;7.75;4.88;;;;;;;;;;5011785;28;20081;-67
2023/10/19 05:39:09;;;;;;;7.22;4.57;;;;;;;;;;5009928;28;20844;-66
2023/10/19 05:41:35;;;;;;;7.00;4.10;;;;;;;;;;5010308;28;20416;-67
2023/10/19 05:44:01;;;;;;;7.55;4.63;;;;;;;;;;5009398;28;20029;-66
2023/10/19 05:46:31;;;;;;;7.43;4.47;;;;;;;;;;5010614;28;20041;-66
2023/10/19 05:48:58;;;;;;;7.43;4.53;;;;;;;;;;5006523;28;20045;-66
2023/10/19 05:51:24;;;;;;;5.75;3.90;;;;;;;;;;5010718;28;20041;-66
2023/10/19 05:54:01;;;;;;;10.63;4.30;;;;;;;;;;5010837;28;20076;-66
2023/10/19 05:56:28;;;;;;;8.00;4.50;;;;;;;;;;5009321;28;20034;-66
2023/10/19 05:58:54;;;;;;;7.53;4.53;;;;;;;;;;5010763;28;20030;-66
2023/10/19 06:01:22;;;;;;;6.10;4.13;;;;;;;;;;5009754;28;20025;-66
2023/10/19 06:03:48;;;;;;;7.20;4.50;;;;;;;;;;5010434;28;20036;-66
2023/10/19 06:06:14;;;;;;;6.63;4.32;;;;;;;;;;5008969;28;20492;-66
2023/10/19 06:08:43;;;;;;;8.43;5.00;;;;;;;;;;5009575;28;20030;-66
2023/10/19 06:11:09;;;;;;;7.57;4.70;;;;;;;;;;5008672;28;20042;-66
2023/10/19 06:13:35;;;;;;;6.68;4.20;;;;;;;;;;5009548;28;20034;-66
2023/10/19 06:16:01;;;;;;;7.68;4.82;;;;;;;;;;5006898;28;20658;-66
2023/10/19 06:18:29;;;;;;;9.25;4.55;;;;;;;;;;5009921;28;20738;-66
2023/10/19 06:20:55;;;;;;;6.88;4.10;;;;;;;;;;5010540;28;20045;-66
2023/10/19 06:23:21;;;;;;;7.10;3.58;;;;;;;;;;5009925;28;20132;-66
2023/10/19 06:25:47;;;;;;;5.80;3.70;;;;;;;;;;5010090;28;20033;-66
2023/10/19 06:28:13;;;;;;;5.20;3.38;;;;;;;;;;5010397;28;20034;-66
2023/10/19 06:30:40;;;;;;;6.75;3.67;;;;;;;;;;5009435;28;20785;-66
2023/10/19 06:33:06;;;;;;;6.50;3.83;;;;;;;;;;5009431;28;20061;-66
2023/10/19 06:35:33;;;;;;;6.03;3.78;;;;;;;;;;5008853;28;20186;-66
2023/10/19 06:37:59;;;;;;;6.72;4.00;;;;;;;;;;5008638;28;20034;-66
2023/10/19 06:40:28;;;;;;;5.95;3.40;;;;;;;;;;5008620;28;20141;-66
2023/10/19 06:42:58;;;;;;;5.10;3.17;;;;;;;;;;5007398;28;20475;-66
2023/10/19 06:45:25;;;;;;;5.18;3.25;;;;;;;;;;5010072;28;20049;-66
2023/10/19 06:47:51;;;;;;;5.78;3.42;;;;;;;;;;5008850;28;20774;-66
2023/10/19 06:50:19;;;;;;;4.93;2.80;;;;;;;;;;5008716;28;20058;-66
2023/10/19 06:52:49;;;;;;;4.57;2.72;;;;;;;;;;5008974;28;20037;-66
2023/10/19 06:55:25;;;;;;;4.80;2.88;;;;;;;;;;5009773;28;20025;-66
2023/10/19 06:57:52;;;;;;;6.65;3.28;;;;;;;;;;5008302;28;20036;-66
2023/10/19 07:00:19;;;;;;;5.50;3.13;;;;;;;;;;5008518;28;20037;-66
2023/10/19 07:02:50;;;;;;;5.28;2.95;;;;;;;;;;5007226;28;20026;-66
2023/10/19 07:05:24;;;;;;;4.80;2.78;;;;;;;;;;5008161;28;20029;-66
2023/10/19 07:07:51;;;;;;;;;;;;;;;;;;5009853;28;20038;-66
2023/10/19 07:10:18;;;;;;;5.93;3.00;;;;;;;;;;5008832;28;19925;-66
2023/10/19 07:12:46;;;;;;;5.05;2.88;;;;;;;;;;5008854;28;20036;-66
2023/10/19 07:15:18;;;;;;;5.68;3.20;;;;;;;;;;5008968;28;20029;-66
2023/10/19 07:17:45;;;;;;;4.43;2.85;;;;;;;;;;5009493;28;20040;-65
2023/10/19 07:20:35;;;;;;;5.10;2.63;;;;;;;;;;5009256;28;21640;-66
2023/10/19 07:23:09;;;;;;;4.85;2.63;;;;;;;;;;5009115;28;20045;-66
2023/10/19 07:25:47;;;;;;;4.60;2.47;;;;;;;;;;5009239;28;20231;-66
2023/10/19 07:28:14;;;;;;;5.05;2.80;;;;;;;;;;5009782;28;20030;-67
2023/10/19 07:30:41;;;;;;;4.38;2.50;;;;;;;;;;5008867;28;20036;-66
2023/10/19 07:33:07;;;;;;;4.53;2.22;;;;;;;;;;5009131;28;20112;-67
2023/10/19 07:35:42;;;;;;;4.30;2.40;;;;;;;;;;5005270;28;20944;-66
2023/10/19 07:38:08;;;;;;;3.70;2.10;;;;;;;;;;5008540;28;20033;-66
2023/10/19 07:40:35;;;;;;;3.47;2.00;;;;;;;;;;5008864;28;20044;-66
2023/10/19 07:43:01;;;;;;;4.50;2.13;;;;;;;;;;5007924;28;20038;-66
2023/10/19 07:45:28;;;;;;;3.70;1.80;;;;;;;;;;5008584;28;20583;-66
2023/10/19 07:47:54;;;;;;;3.92;2.35;;;;;;;;;;5008544;28;20021;-66
2023/10/19 07:50:22;;;;;;;3.75;2.10;;;;;;;;;;5006558;28;20049;-66
2023/10/19 07:52:50;;;;;;;4.40;2.30;;;;;;;;;;5008598;28;20037;-66
2023/10/19 07:55:17;;;;;;;3.90;2.20;;;;;;;;;;5008237;28;20878;-66
2023/10/19 07:57:44;;;;;;;3.70;2.00;;;;;;;;;;5008428;28;20033;-66
2023/10/19 08:00:10;;;;;;;4.38;2.25;;;;;;;;;;5008640;28;20076;-66
2023/10/19 08:02:37;;;;;;;3.85;2.03;;;;;;;;;;5008771;28;20060;-66
2023/10/19 08:05:06;;;;;;;3.22;2.03;;;;;;;;;;5008026;28;20034;-66
2023/10/19 08:07:34;;;;;;;4.10;1.85;;;;;;;;;;5008739;28;20412;-66
2023/10/19 08:10:00;;;;;;;13.25;2.60;;;;;;;;;;5024640;28;20048;-66
2023/10/19 08:12:26;;;;;;;3.90;2.20;;;;;;;;;;5007788;28;20022;-66
2023/10/19 08:14:55;;;;;;;3.53;2.00;;;;;;;;;;5008373;28;20140;-66
2023/10/19 08:17:21;;;;;;;4.30;2.40;;;;;;;;;;5007746;28;21637;-66
2023/10/19 08:19:47;;;;;;;3.65;2.03;;;;;;;;;;5008269;28;20103;-66
2023/10/19 08:22:14;;;;;;;3.08;1.83;;;;;;;;;;5008562;28;20034;-66
2023/10/19 08:24:43;;;;;;;3.58;2.15;;;;;;;;;;5007935;28;21079;-66
2023/10/19 08:27:10;;;;;;;4.80;2.40;;;;;;;;;;5008268;28;20092;-67
2023/10/19 08:29:37;;;;;;;4.00;2.22;;;;;;;;;;5007701;28;20025;-66
2023/10/19 08:32:03;;;;;;;4.75;2.25;;;;;;;;;;5005836;28;20117;-66
2023/10/19 08:34:29;;;;;;;4.03;2.38;;;;;;;;;;5007720;28;20355;-66
2023/10/19 08:36:56;;;;;;;4.63;2.97;;;;;;;;;;5007900;28;20034;-66
2023/10/19 08:39:24;;;;;;;5.82;3.03;;;;;;;;;;5006691;28;20033;-66
2023/10/19 08:41:53;;;;;;;5.38;2.90;;;;;;;;;;5008117;28;20392;-66
2023/10/19 08:44:20;;;;;;;5.35;2.75;;;;;;;;;;5008391;28;20032;-66
2023/10/19 08:46:51;;;;;;;4.70;2.80;;;;;;;;;;5007288;28;20038;-67
2023/10/19 08:49:19;;;;;;;4.40;2.70;;;;;;;;;;5007867;28;20710;-66
2023/10/19 08:51:47;;;;;;;4.97;3.08;;;;;;;;;;5006424;28;20104;-66
2023/10/19 08:54:13;;;;;;;5.03;2.45;;;;;;;;;;5007915;28;20029;-66
2023/10/19 08:56:41;;;;;;;5.80;2.58;;;;;;;;;;5007872;28;20036;-66
2023/10/19 08:59:07;;;;;;;5.63;2.95;;;;;;;;;;5007530;28;20144;-66
2023/10/19 09:01:36;;;;;;;4.65;2.88;;;;;;;;;;5007698;28;20651;-66
2023/10/19 09:04:05;;;;;;;5.13;2.80;;;;;;;;;;5008355;28;20029;-66
2023/10/19 09:06:31;;;;;;;5.22;3.13;;;;;;;;;;5008691;28;20038;-66
2023/10/19 09:09:00;;;;;;;5.07;2.88;;;;;;;;;;5006017;28;20116;-66
2023/10/19 09:11:26;;;;;;;5.38;3.10;;;;;;;;;;5007232;28;20025;-66
2023/10/19 09:13:53;;;;;;;5.20;3.08;;;;;;;;;;5006677;28;21868;-66
2023/10/19 09:16:23;;;;;;;5.90;3.47;;;;;;;;;;5005564;28;20034;-66
2023/10/19 09:18:49;;;;;;;8.13;3.78;;;;;;;;;;5006931;28;20033;-66
2023/10/19 09:21:25;;;;;;;6.15;3.38;;;;;;;;;;5006272;28;20112;-66
2023/10/19 09:23:55;;;;;;;5.93;3.53;;;;;;;;;;5007206;28;20116;-66
2023/10/19 09:26:22;;;;;;;7.15;3.60;;;;;;;;;;5010970;28;20063;-66
2023/10/19 09:28:49;;;;;;;5.70;3.55;;;;;;;;;;5010649;28;20034;-66
2023/10/19 09:31:16;;;;;;;7.47;3.85;;;;;;;;;;5010457;28;20032;-66
2023/10/19 09:33:43;;;;;;;6.32;3.65;;;;;;;;;;5010869;28;20045;-66
2023/10/19 09:36:13;;;;;;;7.63;4.18;;;;;;;;;;5009489;28;20440;-66
2023/10/19 09:38:42;;;;;;;8.35;4.10;;;;;;;;;;5011477;28;20029;-66
2023/10/19 09:41:09;;;;;;;8.80;4.68;;;;;;;;;;5010104;28;20060;-66
2023/10/19 09:43:38;;;;;;;9.73;4.20;;;;;;;;;;5009496;28;20030;-66
2023/10/19 09:46:09;;;;;;;6.00;3.70;;;;;;;;;;5008959;28;20033;-66
2023/10/19 09:48:47;;;;;;;6.75;3.92;;;;;;;;;;5010095;28;20152;-66
2023/10/19 09:51:18;;;;;;;9.63;4.68;;;;;;;;;;5009675;28;20136;-66
2023/10/19 09:53:46;;;;;;;9.25;4.85;;;;;;;;;;5011858;28;20129;-66
2023/10/19 09:56:16;;;;;;;6.80;4.30;;;;;;;;;;5011063;28;20053;-67
2023/10/19 09:58:45;;;;;;;8.30;4.40;;;;;;;;;;5011401;28;20504;-67
2023/10/19 10:01:21;;;;;;;7.47;4.07;;;;;;;;;;5010156;28;20965;-67
2023/10/19 10:03:48;;;;;;;7.47;4.55;;;;;;;;;;5012008;28;20033;-67
2023/10/19 10:06:28;;;;;;;7.45;3.97;;;;;;;;;;5010230;28;20164;-67
2023/10/19 10:08:54;;;;;;;6.85;3.88;;;;;;;;;;5010461;28;20033;-67
2023/10/19 10:11:22;;;;;;;6.75;3.90;;;;;;;;;;5010300;28;20646;-67
2023/10/19 10:13:52;;;;;;;7.32;4.63;;;;;;;;;;5010770;28;20025;-66
2023/10/19 10:16:19;;;;;;;7.85;4.82;;;;;;;;;;5009954;28;20076;-67
2023/10/19 10:18:48;;;;;;;7.38;4.70;;;;;;;;;;5010567;28;20037;-67
2023/10/19 10:21:15;;;;;;;8.57;5.18;;;;;;;;;;5011021;28;20032;-67
2023/10/19 10:23:47;;;;;;;8.13;5.00;;;;;;;;;;5010452;28;20044;-67
2023/10/19 10:26:15;;;;;;;8.07;4.82;;;;;;;;;;5010715;28;20739;-67
2023/10/19 10:28:43;;;;;;;9.82;5.53;;;;;;;;;;5010149;28;20503;-67
2023/10/19 10:31:20;;;;;;;11.23;5.28;;;;;;;;;;5009779;28;20045;-66
2023/10/19 10:33:56;;;;;;;8.30;5.03;;;;;;;;;;5009712;28;20641;-67
2023/10/19 10:36:22;;;;;;;9.35;4.72;;;;;;;;;;5009216;28;20047;-66
2023/10/19 10:38:50;;;;;;;9.65;4.28;;;;;;;;;;5009776;28;20033;-66
2023/10/19 10:41:27;;;;;;;8.18;4.53;;;;;;;;;;5009613;28;20033;-66
2023/10/19 10:43:55;;;;;;;13.60;5.50;;;;;;;;;;5009216;28;20499;-66
2023/10/19 10:46:21;;;;;;;10.15;5.60;;;;;;;;;;5009747;28;20029;-66
2023/10/19 10:48:48;;;;;;;8.70;4.97;;;;;;;;;;5009716;28;20287;-66
2023/10/19 10:51:30;;;;;;;8.88;5.20;;;;;;;;;;5025840;28;20128;-66
2023/10/19 10:53:56;;;;;;;8.98;5.10;;;;;;;;;;5009139;28;20033;-66
2023/10/19 10:56:23;;;;;;;9.45;5.30;;;;;;;;;;5007235;28;20033;-67
2023/10/19 10:58:50;;;;;;;9.60;5.50;;;;;;;;;;5009226;28;21858;-66
2023/10/19 11:01:16;;;;;;;9.85;5.55;;;;;;;;;;5008786;28;20095;-66
2023/10/19 11:03:42;;;;;;;10.55;6.22;;;;;;;;;;5008180;28;20041;-67
2023/10/19 11:06:09;;;;;;;8.70;5.47;;;;;;;;;;5008419;28;20045;-67
2023/10/19 11:08:36;;;;;;;9.75;6.18;;;;;;;;;;5008951;28;20480;-67
2023/10/19 11:11:06;;;;;;;11.57;5.78;;;;;;;;;;5008020;28;20033;-67
2023/10/19 11:13:35;;;;;;;12.95;6.05;;;;;;;;;;5006087;28;20040;-67
2023/10/19 11:16:03;;;;;;;11.63;6.03;;;;;;;;;;5009364;28;20032;-67
2023/10/19 11:18:30;;;;;;;11.73;6.60;;;;;;;;;;5009033;28;20079;-67
2023/10/19 11:20:59;;;;;;;11.27;6.75;;;;;;;;;;5008126;28;20147;-67
2023/10/19 11:23:36;;;;;;;13.23;6.78;;;;;;;;;;5009470;28;21817;-67
2023/10/19 11:26:09;;;;;;;11.52;6.50;;;;;;;;;;5008147;28;20037;-66
2023/10/19 11:28:38;;;;;;;11.77;5.70;;;;;;;;;;5007266;28;20091;-67
2023/10/19 11:31:12;;;;;;;9.60;5.53;;;;;;;;;;5007085;28;20049;-68
2023/10/19 11:33:38;;;;;;;;;;;;;;;;;;5024907;28;20560;-68
2023/10/19 11:36:04;;;;;;;8.40;5.00;;;;;;;;;;5009088;28;20346;-68
2023/10/19 11:38:31;;;;;;;9.88;5.22;;;;;;;;;;5007938;28;20030;-67
2023/10/19 11:40:57;;;;;;;9.45;5.10;;;;;;;;;;5008675;28;20097;-68
2023/10/19 11:43:23;;;;;;;9.68;5.90;;;;;;;;;;5009483;28;20091;-68
2023/10/19 11:45:49;;;;;;;8.23;5.10;;;;;;;;;;5008936;28;20029;-68
2023/10/19 11:48:15;;;;;;;11.88;6.35;;;;;;;;;;5006632;28;20676;-68
2023/10/19 11:50:41;;;;;;;11.50;5.93;;;;;;;;;;5007753;28;20045;-68
2023/10/19 11:53:09;;;;;;;10.45;6.75;;;;;;;;;;5009343;28;20039;-68
2023/10/19 11:55:35;;;;;;;10.90;6.55;;;;;;;;;;5007924;28;20982;-68
2023/10/19 11:58:02;;;;;;;9.90;7.32;;;;;;;;;;5008618;28;20115;-67
2023/10/19 12:00:33;;;;;;;10.23;6.97;;;;;;;;;;5008419;28;20157;-67
2023/10/19 12:03:00;;;;;;;10.73;7.70;;;;;;;;;;5008157;28;20033;-68
2023/10/19 12:05:26;;;;;;;11.73;7.60;;;;;;;;;;5008874;28;20527;-67
2023/10/19 12:07:52;;;;;;;11.20;6.53;;;;;;;;;;5006793;28;20041;-67
2023/10/19 12:10:25;;;;;;;12.52;6.85;;;;;;;;;;5007055;28;20951;-68
2023/10/19 12:12:52;;;;;;;;;;;;;;;;;;5009450;28;20022;-68
2023/10/19 12:15:22;;;;;;;11.80;6.10;;;;;;;;;;5007756;28;20011;-68
2023/10/19 12:17:50;;;;;;;12.60;6.05;;;;;;;;;;5007987;28;20037;-67
2023/10/19 12:20:16;;;;;;;10.38;5.97;;;;;;;;;;5006477;28;20072;-67
2023/10/19 12:22:42;;;;;;;10.02;6.78;;;;;;;;;;5008449;28;20037;-67
2023/10/19 12:25:09;;;;;;;13.05;6.45;;;;;;;;;;5004553;28;20073;-67
2023/10/19 12:27:37;;;;;;;10.18;5.85;;;;;;;;;;5008084;28;20042;-69
2023/10/19 12:30:13;;;;;;;11.07;6.20;;;;;;;;;;5007666;28;20417;-66
2023/10/19 12:32:39;;;;;;;10.35;6.90;;;;;;;;;;5007635;28;20110;-68
2023/10/19 12:35:11;;;;;;;9.85;6.95;;;;;;;;;;5008062;28;20034;-68
2023/10/19 12:37:45;;;;;;;10.55;7.70;;;;;;;;;;5007685;28;21196;-68
2023/10/19 12:40:26;;;;;;;10.90;7.85;;;;;;;;;;5008357;28;20052;-68
2023/10/19 12:42:54;;;;;;;11.63;8.52;;;;;;;;;;5008323;28;20048;-68
2023/10/19 12:45:20;;;;;;;13.27;8.43;;;;;;;;;;5008170;28;20029;-67
2023/10/19 12:47:46;;;;;;;11.57;8.38;;;;;;;;;;5008073;28;20064;-68
2023/10/19 12:50:12;;;;;;;12.32;9.48;;;;;;;;;;5007081;28;20118;-67
2023/10/19 12:52:40;;;;;;;12.23;9.38;;;;;;;;;;5008322;28;20570;-66
2023/10/19 12:55:06;;;;;;;12.32;9.07;;;;;;;;;;5008278;28;20034;-67
2023/10/19 12:57:32;;;;;;;13.32;10.60;;;;;;;;;;5008607;28;20036;-67
2023/10/19 13:00:06;;;;;;;14.98;10.77;;;;;;;;;;5010490;28;20556;-66
2023/10/19 13:02:34;;;;;;;17.85;11.50;;;;;;;;;;5012458;28;20100;-67
2023/10/19 13:05:00;;;;;;;14.60;10.75;;;;;;;;;;5011135;28;20029;-67
2023/10/19 13:07:26;;;;;;;15.52;9.95;;;;;;;;;;5011387;28;20037;-67
2023/10/19 13:09:52;;;;;;;10.80;8.32;;;;;;;;;;5011114;28;20404;-66
2023/10/19 13:12:23;;;;;;;12.82;8.60;;;;;;;;;;5010931;28;20022;-67
2023/10/19 13:14:49;;;;;;;10.43;7.60;;;;;;;;;;5010000;28;20037;-67
2023/10/19 13:17:15;;;;;;;14.07;7.15;;;;;;;;;;5009875;28;20027;-67
2023/10/19 13:19:41;;;;;;;14.07;8.02;;;;;;;;;;5010690;28;20051;-66
2023/10/19 13:22:07;;;;;;;12.98;7.38;;;;;;;;;;5009252;28;20060;-66
2023/10/19 13:24:40;;;;;;;11.38;7.45;;;;;;;;;;5011017;28;20156;-67
2023/10/19 13:27:07;;;;;;;13.38;7.95;;;;;;;;;;5011299;28;20679;-67
2023/10/19 13:29:37;;;;;;;12.88;7.70;;;;;;;;;;5010864;28;20779;-67
2023/10/19 13:32:03;;;;;;;14.77;7.78;;;;;;;;;;5010605;28;20053;-68
2023/10/19 13:34:29;;;;;;;14.52;8.00;;;;;;;;;;5010741;28;20112;-67
2023/10/19 13:36:56;;;;;;;12.05;7.30;;;;;;;;;;5010760;28;20030;-67
2023/10/19 13:39:25;;;;;;;13.98;6.65;;;;;;;;;;5010272;28;20842;-67
2023/10/19 13:41:54;;;;;;;10.90;7.78;;;;;;;;;;5010370;28;20079;-67
2023/10/19 13:44:20;;;;;;;11.93;6.85;;;;;;;;;;5009333;28;20044;-67
2023/10/19 13:46:47;;;;;;;12.88;7.30;;;;;;;;;;5009126;28;20087;-67
2023/10/19 13:49:13;;;;;;;12.70;7.38;;;;;;;;;;5010507;28;20091;-66
2023/10/19 13:51:39;;;;;;;10.23;6.60;;;;;;;;;;5010062;28;20085;-67
2023/10/19 13:54:06;;;;;;;10.40;6.30;;;;;;;;;;5009535;28;20029;-66
2023/10/19 13:56:32;;;;;;;13.63;6.97;;;;;;;;;;5010060;28;20029;-68
2023/10/19 13:58:59;;;;;;;11.13;6.93;;;;;;;;;;5010820;28;21861;-67
2023/10/19 14:01:26;;;;;;;13.77;7.45;;;;;;;;;;5010731;28;20061;-67
2023/10/19 14:03:54;;;;;;;11.00;6.90;;;;;;;;;;5010132;28;20044;-67
2023/10/19 14:06:22;;;;;;;13.98;8.38;;;;;;;;;;5010808;28;20034;-66
2023/10/19 14:08:48;;;;;;;12.55;7.35;;;;;;;;;;5011050;28;20120;-68
2023/10/19 14:11:14;;;;;;;12.45;7.93;;;;;;;;;;5008327;28;20468;-66
2023/10/19 14:13:42;;;;;;;14.35;7.47;;;;;;;;;;5011024;28;20033;-67
2023/10/19 14:16:08;;;;;;;12.43;7.28;;;;;;;;;;5010412;28;20091;-67
2023/10/19 14:18:34;;;;;;;14.57;8.40;;;;;;;;;;5010604;28;20072;-67
2023/10/19 14:21:01;;;;;;;16.08;7.80;;;;;;;;;;5009379;28;20038;-67
2023/10/19 14:23:27;;;;;;;12.02;6.93;;;;;;;;;;5009903;28;20072;-67
2023/10/19 14:25:53;;;;;;;12.88;7.20;;;;;;;;;;5009395;28;20077;-66
2023/10/19 14:28:19;;;;;;;13.60;7.40;;;;;;;;;;5009309;28;20033;-66
2023/10/19 14:30:45;;;;;;;13.02;7.25;;;;;;;;;;5009151;28;20034;-67
2023/10/19 14:33:11;;;;;;;12.75;6.57;;;;;;;;;;5010417;28;20039;-66
2023/10/19 14:35:41;;;;;;;11.23;6.55;;;;;;;;;;5010759;28;20029;-67
2023/10/19 14:38:09;;;;;;;12.35;6.53;;;;;;;;;;5009361;28;20753;-67
2023/10/19 14:40:35;;;;;;;13.63;6.80;;;;;;;;;;5009773;28;20061;-66
2023/10/19 14:43:02;;;;;;;14.13;6.88;;;;;;;;;;5009951;28;20629;-66
2023/10/19 14:45:32;;;;;;;12.45;6.65;;;;;;;;;;5009073;28;20040;-67
2023/10/19 14:47:59;;;;;;;12.48;6.55;;;;;;;;;;5008271;28;20041;-66
2023/10/19 14:50:26;;;;;;;14.15;7.03;;;;;;;;;;5009954;28;20034;-66
2023/10/19 14:52:54;;;;;;;11.75;6.40;;;;;;;;;;5009757;28;20042;-67
2023/10/19 14:55:20;;;;;;;13.80;6.90;;;;;;;;;;5009633;28;21040;-67
2023/10/19 14:57:52;;;;;;;13.02;6.68;;;;;;;;;;5009296;28;20033;-66
2023/10/19 15:00:22;;;;;;;12.85;7.03;;;;;;;;;;5008879;28;20120;-67
2023/10/19 15:02:51;;;;;;;11.13;6.43;;;;;;;;;;5008121;28;20029;-67
2023/10/19 15:05:18;;;;;;;11.40;6.93;;;;;;;;;;5008977;28;20123;-68
2023/10/19 15:07:45;;;;;;;14.68;7.07;;;;;;;;;;5008870;28;20036;-67